Forside
METAR-TAF:

METAR-TAF

Lufthavne :

Kirksville Regional Airport

Kirksville, Missouri, USA

Breddekreds: 40-05-50N, længdekreds: 092-32-36W, højde: 294 m

Aktuelle vejr

Denne rapport blev lavet for 51 minutter siden, kl. 23:55 UTC
Vind stille
Temperatur -2°C
Fugtighed 69%
Tryk 1028 hPa
Sigt: 16.1 km
skyfri

METAR: KIRK 142355Z AUTO 00000KT 10SM CLR M02/M07 A3037 RMK AO2 SLP304 T10221072 10028 21022 58014

Tid: 18:46 (00:46 UTC)


TAF: fraværende

Vejrobservationer og prognoser fra mere end 4000 lufthavne (METAR og TAF).

De gule og røde prikker repræsenterer de meteorologiske stationer.

Flyt musen over at se navnet på stationen.

Så klik over at se vejr observationer og prognoser.

At skifte det kort: Klik på de grønne knapper med et sort kors for at zoome ind; på den grønne knap med en bindestreg for at zoome ud; eller på de grønne pile for tilstødende kort.


METAR-TAF: